Time;durP1;ratioP1;P1;durP2;ratioP2;P2;SDS_P1;SDS_P2;PMS_P1;PMS_P2;Temp;Humidity;BMP_temperature;BMP_pressure;BME280_temperature;BME280_humidity;BME280_pressure;Samples;Min_cycle;Max_cycle;Signal;HPM_P1;HPM_P2
2023/03/11 00:01:30;;;;;;;9.60;6.13;;;;;;;11.50;100.00;98257.13;5003572;28;20025;-80
2023/03/11 00:03:55;;;;;;;9.63;6.53;;;;;;;11.47;100.00;98268.25;5023457;28;20029;-70
2023/03/11 00:06:21;;;;;;;8.95;6.18;;;;;;;11.47;100.00;98256.69;5022835;28;20022;-71
2023/03/11 00:08:46;;;;;;;8.20;5.30;;;;;;;11.47;100.00;98275.47;5003275;28;20045;-71
2023/03/11 00:11:12;;;;;;;8.88;5.97;;;;;;;11.43;100.00;98261.59;5014834;28;20030;-70
2023/03/11 00:13:38;;;;;;;8.05;5.68;;;;;;;11.41;100.00;98255.59;5021121;28;20054;-70
2023/03/11 00:16:04;;;;;;;7.22;5.50;;;;;;;11.37;100.00;98248.94;5018320;28;20026;-71
2023/03/11 00:18:30;;;;;;;7.15;5.50;;;;;;;11.58;100.00;98274.97;5021401;28;20040;-70
2023/03/11 00:20:56;;;;;;;5.43;3.97;;;;;;;11.29;100.00;98232.94;5019482;28;20025;-71
2023/03/11 00:23:23;;;;;;;6.05;3.35;;;;;;;11.65;99.06;98281.28;4999737;28;20045;-70
2023/03/11 00:25:49;;;;;;;5.05;2.88;;;;;;;11.60;95.19;98266.75;5017934;28;20048;-70
2023/03/11 00:28:15;;;;;;;5.05;3.05;;;;;;;11.54;95.36;98287.94;5015822;28;20025;-70
2023/03/11 00:30:43;;;;;;;4.45;2.60;;;;;;;11.60;93.74;98280.16;5011439;28;20037;-70
2023/03/11 00:33:10;;;;;;;4.05;2.50;;;;;;;11.35;92.36;98253.66;5023029;28;20107;-69
2023/03/11 00:35:36;;;;;;;3.03;2.20;;;;;;;11.64;89.79;98289.53;5028952;28;20057;-79
2023/03/11 00:38:05;;;;;;;3.80;1.90;;;;;;;11.76;82.91;98299.56;5029951;28;20103;-79
2023/03/11 00:40:33;;;;;;;3.40;1.95;;;;;;;11.67;84.93;98302.56;5025177;28;20486;-79
2023/03/11 00:42:59;;;;;;;3.55;1.50;;;;;;;11.65;83.14;98296.53;5027563;28;20394;-79
2023/03/11 00:45:27;;;;;;;2.90;1.30;;;;;;;11.70;78.63;98294.13;5028834;28;20029;-79
2023/03/11 00:47:53;;;;;;;2.30;1.40;;;;;;;11.62;79.57;98289.72;5022631;28;20033;-79
2023/03/11 00:50:25;;;;;;;2.38;1.23;;;;;;;11.66;79.27;98287.47;5026826;28;20387;-79
2023/03/11 00:52:51;;;;;;;1.88;1.20;;;;;;;11.57;79.05;98285.91;5021646;28;20120;-78
2023/03/11 00:55:21;;;;;;;3.50;1.30;;;;;;;11.53;76.64;98280.91;5022568;28;20134;-77
2023/03/11 00:57:50;;;;;;;3.10;1.30;;;;;;;11.67;75.58;98289.94;5031260;28;20034;-78
2023/03/11 01:00:17;;;;;;;1.77;1.15;;;;;;;11.52;77.47;98292.66;5011645;28;20104;-78
2023/03/11 01:02:43;;;;;;;1.77;0.93;;;;;;;11.55;75.66;98286.91;5010996;28;20399;-77
2023/03/11 01:05:09;;;;;;;2.75;1.10;;;;;;;11.43;77.31;98290.28;5020957;28;20030;-76
2023/03/11 01:07:35;;;;;;;2.17;1.20;;;;;;;11.45;76.52;98299.00;5026036;28;20032;-77
2023/03/11 01:10:01;;;;;;;2.83;1.45;;;;;;;11.35;75.57;98282.34;5024606;28;20025;-77
2023/03/11 01:12:26;;;;;;;1.90;1.00;;;;;;;11.52;75.42;98289.97;5017558;28;20078;-77
2023/03/11 01:14:53;;;;;;;2.70;0.95;;;;;;;11.50;74.04;98281.28;5027848;28;20065;-77
2023/03/11 01:17:20;;;;;;;1.90;1.00;;;;;;;11.33;75.66;98274.50;5002961;28;20037;-78
2023/03/11 01:19:46;;;;;;;1.50;0.98;;;;;;;11.45;75.15;98282.88;5009509;28;20033;-77
2023/03/11 01:22:12;;;;;;;3.25;0.82;;;;;;;11.45;74.10;98275.66;5028103;28;20041;-77
2023/03/11 01:24:37;;;;;;;1.17;0.70;;;;;;;11.49;73.03;98276.13;5020714;28;20029;-77
2023/03/11 01:27:03;;;;;;;2.38;1.00;;;;;;;11.42;72.53;98276.03;5020353;28;20025;-77
2023/03/11 01:29:28;;;;;;;1.00;0.65;;;;;;;11.30;74.25;98277.56;5028019;28;20651;-77
2023/03/11 01:31:53;;;;;;;2.92;1.10;;;;;;;11.27;72.23;98259.16;5020248;28;20037;-77
2023/03/11 01:34:19;;;;;;;1.40;0.82;;;;;;;11.15;73.97;98260.66;5025895;28;20087;-76
2023/03/11 01:36:44;;;;;;;2.03;0.90;;;;;;;11.09;73.22;98252.50;5015282;28;20041;-77
2023/03/11 01:39:10;;;;;;;1.35;0.90;;;;;;;11.13;73.34;98265.38;5016746;28;20025;-77
2023/03/11 01:41:35;;;;;;;1.92;0.95;;;;;;;11.12;73.32;98266.41;5019930;28;20026;-77
2023/03/11 01:44:03;;;;;;;3.85;1.20;;;;;;;11.09;72.39;98256.03;5021202;28;20468;-77
2023/03/11 01:47:01;;;;;;;2.78;1.15;;;;;;;11.17;71.30;98252.41;5019108;28;20037;-77
2023/03/11 01:49:27;;;;;;;2.45;0.82;;;;;;;11.04;72.66;98257.63;4970982;28;20046;-76
2023/03/11 01:51:59;;;;;;;1.13;0.63;;;;;;;11.03;71.82;98270.19;5020614;28;20111;-77
2023/03/11 01:54:29;;;;;;;2.20;0.90;;;;;;;11.15;70.17;98271.38;5023990;28;20034;-77
2023/03/11 01:56:56;;;;;;;1.20;0.70;;;;;;;10.99;70.47;98260.03;5009333;28;20033;-76
2023/03/11 01:59:26;;;;;;;2.28;1.05;;;;;;;10.88;71.06;98263.19;5027812;28;20049;-76
2023/03/11 02:02:14;;;;;;;0.98;0.60;;;;;;;10.86;68.75;98252.66;5017708;28;20030;-68
2023/03/11 02:04:41;;;;;;;2.83;0.73;;;;;;;10.78;69.77;98268.00;4998628;28;20412;-68
2023/03/11 02:07:08;;;;;;;1.83;0.70;;;;;;;10.83;67.62;98269.13;5009321;28;20033;-68
2023/03/11 02:09:33;;;;;;;1.38;0.70;;;;;;;10.78;68.09;98273.38;5019302;28;20035;-68
2023/03/11 02:12:00;;;;;;;3.45;0.80;;;;;;;10.75;66.77;98265.72;5002123;28;20034;-68
2023/03/11 02:14:28;;;;;;;2.75;0.75;;;;;;;10.43;67.89;98224.03;5011844;28;20501;-68
2023/03/11 02:16:54;;;;;;;3.63;0.77;;;;;;;10.50;66.88;98243.72;5019978;28;20443;-69
2023/03/11 02:19:31;;;;;;;1.50;0.90;;;;;;;10.50;68.22;98267.84;5019709;28;20116;-76
2023/03/11 02:21:56;;;;;;;1.38;0.95;;;;;;;10.39;68.69;98251.38;5017622;28;20779;-76
2023/03/11 02:24:49;;;;;;;1.85;0.80;;;;;;;10.46;67.91;98269.22;5026093;28;20105;-76
2023/03/11 02:27:17;;;;;;;1.98;0.80;;;;;;;10.40;68.43;98264.59;5024652;28;20041;-76
2023/03/11 02:29:45;;;;;;;0.77;0.73;;;;;;;10.41;67.58;98268.94;5016040;28;20084;-76
2023/03/11 02:32:11;;;;;;;1.67;0.73;;;;;;;10.56;66.80;98268.94;5025590;28;20037;-76
2023/03/11 02:34:38;;;;;;;0.43;0.40;;;;;;;10.38;67.61;98271.97;5014422;28;20102;-76
2023/03/11 02:37:06;;;;;;;1.85;0.80;;;;;;;10.38;66.55;98255.91;5023579;28;20021;-76
2023/03/11 02:39:37;;;;;;;0.95;0.70;;;;;;;10.36;67.55;98267.81;5025201;28;20056;-76
2023/03/11 02:42:23;;;;;;;1.83;0.90;;;;;;;10.38;66.80;98271.97;5020961;28;20430;-76
2023/03/11 02:45:11;;;;;;;2.47;1.00;;;;;;;10.34;66.61;98275.19;5031735;28;20583;-75
2023/03/11 02:47:38;;;;;;;2.42;1.30;;;;;;;10.23;67.41;98279.19;5019729;28;20024;-76
2023/03/11 02:50:06;;;;;;;3.95;1.23;;;;;;;10.20;66.75;98268.81;5017704;28;20033;-76
2023/03/11 02:52:33;;;;;;;1.70;0.80;;;;;;;10.26;66.51;98283.31;5018944;28;20116;-76
2023/03/11 02:54:59;;;;;;;2.60;0.73;;;;;;;10.37;65.61;98297.09;5018684;28;20029;-76
2023/03/11 02:57:25;;;;;;;2.78;1.70;;;;;;;10.31;65.81;98295.16;5019814;28;20030;-76
2023/03/11 02:59:50;;;;;;;3.33;0.90;;;;;;;10.27;65.99;98306.41;5004825;28;20025;-75
2023/03/11 03:02:16;;;;;;;1.83;0.80;;;;;;;10.11;65.55;98295.84;5018579;28;20049;-68
2023/03/11 03:04:41;;;;;;;2.35;0.80;;;;;;;10.01;65.04;98279.16;5001968;28;20032;-68
2023/03/11 03:07:07;;;;;;;5.05;1.10;;;;;;;9.92;65.21;98275.72;5024120;28;20029;-68
2023/03/11 03:09:33;;;;;;;4.93;0.85;;;;;;;10.05;64.57;98296.53;5001641;28;20095;-67
2023/03/11 03:11:59;;;;;;;1.33;0.70;;;;;;;9.92;64.71;98285.59;5025923;28;20497;-67
2023/03/11 03:14:24;;;;;;;2.08;0.80;;;;;;;9.93;65.60;98322.09;5000441;28;20029;-67
2023/03/11 03:16:50;;;;;;;1.95;0.73;;;;;;;10.09;63.86;98317.44;4996950;28;20038;-67
2023/03/11 03:19:15;;;;;;;2.55;1.05;;;;;;;9.98;64.80;98331.25;5017565;28;20030;-68
2023/03/11 03:21:41;;;;;;;2.28;0.90;;;;;;;9.82;65.35;98307.28;5022371;28;20037;-67
2023/03/11 03:24:06;;;;;;;2.70;0.82;;;;;;;9.99;64.90;98319.50;5017794;28;20037;-67
2023/03/11 03:26:32;;;;;;;2.67;1.17;;;;;;;9.84;65.30;98307.09;5027150;28;20052;-66
2023/03/11 03:28:57;;;;;;;1.85;0.70;;;;;;;9.89;64.99;98308.22;5015200;28;20030;-68
2023/03/11 03:31:24;;;;;;;4.13;0.80;;;;;;;10.06;64.85;98331.19;5011991;28;20471;-67
2023/03/11 03:33:49;;;;;;;2.83;0.98;;;;;;;9.94;63.87;98289.78;5018362;28;20069;-67
2023/03/11 03:36:15;;;;;;;2.13;0.85;;;;;;;10.16;63.80;98305.00;5019166;28;20066;-67
2023/03/11 03:38:41;;;;;;;3.13;1.02;;;;;;;9.89;63.76;98286.78;5009379;28;20029;-67
2023/03/11 03:41:07;;;;;;;2.05;0.77;;;;;;;10.08;64.73;98339.06;5019958;28;20048;-67
2023/03/11 03:43:32;;;;;;;1.98;1.13;;;;;;;9.88;65.13;98322.63;5019271;28;20407;-67
2023/03/11 03:46:01;;;;;;;1.70;0.93;;;;;;;10.00;64.67;98341.78;5013529;28;20112;-67
2023/03/11 03:48:26;;;;;;;2.58;0.80;;;;;;;9.70;64.48;98286.47;4999412;28;20532;-68
2023/03/11 03:50:52;;;;;;;3.58;0.80;;;;;;;10.13;62.15;98316.06;5024593;28;20104;-66
2023/03/11 03:53:18;;;;;;;2.22;0.80;;;;;;;10.15;61.48;98329.28;5027194;28;20112;-67
2023/03/11 03:55:43;;;;;;;3.85;0.93;;;;;;;10.15;62.13;98348.88;5020159;28;20025;-75
2023/03/11 03:58:08;;;;;;;3.28;0.85;;;;;;;10.13;61.97;98344.72;5022796;28;20017;-75
2023/03/11 04:00:34;;;;;;;0.85;0.50;;;;;;;10.15;61.23;98356.06;5028015;28;20030;-74
2023/03/11 04:03:00;;;;;;;2.33;0.80;;;;;;;10.01;61.91;98341.59;5020613;28;20301;-75
2023/03/11 04:05:26;;;;;;;3.72;0.95;;;;;;;10.17;61.28;98362.09;5021404;28;20501;-74
2023/03/11 04:07:52;;;;;;;1.02;0.70;;;;;;;10.20;60.22;98359.91;5024412;28;20026;-74
2023/03/11 04:10:18;;;;;;;2.38;0.73;;;;;;;10.27;59.40;98360.00;5016642;28;20037;-74
2023/03/11 04:12:43;;;;;;;4.53;0.75;;;;;;;10.24;58.68;98360.34;5029455;28;20030;-74
2023/03/11 04:15:09;;;;;;;4.32;0.82;;;;;;;10.48;57.45;98360.97;5018533;28;20037;-74
2023/03/11 04:17:35;;;;;;;2.20;0.70;;;;;;;10.48;56.73;98347.56;5019094;28;20033;-74
2023/03/11 04:20:01;;;;;;;3.50;1.15;;;;;;;10.37;57.32;98344.50;5018644;28;20053;-67
2023/03/11 04:22:26;;;;;;;2.72;0.80;;;;;;;10.22;56.78;98320.34;5020366;28;20088;-67
2023/03/11 04:24:52;;;;;;;4.85;0.85;;;;;;;10.42;55.19;98353.66;5013262;28;20038;-67
2023/03/11 04:27:17;;;;;;;1.10;0.43;;;;;;;10.35;55.79;98360.75;4997363;28;20029;-67
2023/03/11 04:29:43;;;;;;;2.05;0.77;;;;;;;10.21;54.43;98344.63;4990772;28;20022;-66
2023/03/11 04:32:08;;;;;;;3.33;0.73;;;;;;;10.52;50.54;98354.25;5011383;28;20607;-66
2023/03/11 04:34:34;;;;;;;3.47;0.80;;;;;;;10.47;48.79;98350.44;4998792;28;20211;-66
2023/03/11 04:36:59;;;;;;;4.20;0.82;;;;;;;10.32;48.76;98361.09;5003998;28;20030;-75
2023/03/11 04:39:24;;;;;;;2.97;0.65;;;;;;;10.38;48.08;98370.28;5008988;28;20089;-73
2023/03/11 04:41:50;;;;;;;4.78;0.80;;;;;;;10.48;47.96;98384.28;5010806;28;20029;-74
2023/03/11 04:44:16;;;;;;;7.43;0.70;;;;;;;10.39;47.29;98396.91;4992819;28;20030;-74
2023/03/11 04:46:42;;;;;;;3.53;1.00;;;;;;;10.32;47.80;98382.53;5006454;28;20036;-74
2023/03/11 04:49:07;;;;;;;3.25;0.70;;;;;;;10.38;47.28;98405.13;5011394;28;20037;-74
2023/03/11 04:51:33;;;;;;;1.92;0.70;;;;;;;10.25;48.29;98404.91;5011732;28;20028;-74
2023/03/11 04:53:58;;;;;;;1.25;0.75;;;;;;;10.37;47.30;98401.59;5007027;28;20045;-74
2023/03/11 04:56:24;;;;;;;7.90;0.52;;;;;;;10.42;47.43;98419.81;5025725;28;20082;-74
2023/03/11 04:58:49;;;;;;;3.97;0.60;;;;;;;10.18;48.87;98426.19;5019959;28;20092;-75
2023/03/11 05:01:15;;;;;;;3.67;0.65;;;;;;;10.31;48.41;98431.78;5010757;28;20022;-75
2023/03/11 05:03:40;;;;;;;3.03;0.77;;;;;;;10.08;48.84;98416.72;5009671;28;20026;-75
2023/03/11 05:06:06;;;;;;;5.65;0.90;;;;;;;10.09;48.92;98431.81;5009883;28;20104;-74
2023/03/11 05:08:31;;;;;;;13.65;0.90;;;;;;;10.14;48.48;98443.63;5025626;28;20030;-74
2023/03/11 05:10:56;;;;;;;9.00;0.93;;;;;;;10.06;49.40;98456.22;5010366;28;20029;-74
2023/03/11 05:13:22;;;;;;;7.18;0.88;;;;;;;9.86;50.05;98461.16;4999057;28;20034;-74
2023/03/11 05:15:48;;;;;;;4.35;0.82;;;;;;;9.69;51.77;98453.38;5001597;28;20038;-74
2023/03/11 05:18:14;;;;;;;2.72;0.65;;;;;;;9.61;53.70;98453.44;5009772;28;20038;-74
2023/03/11 05:20:40;;;;;;;2.53;0.90;;;;;;;9.50;54.26;98488.59;5010686;28;20025;-74
2023/03/11 05:23:05;;;;;;;10.07;0.80;;;;;;;9.39;53.95;98479.13;5008683;28;20065;-74
2023/03/11 05:25:31;;;;;;;8.63;1.00;;;;;;;9.30;51.99;98480.13;5007654;28;20022;-74
2023/03/11 05:27:56;;;;;;;11.55;0.98;;;;;;;9.10;53.56;98436.88;5008762;28;20022;-73
2023/03/11 05:30:21;;;;;;;5.45;0.52;;;;;;;9.17;51.53;98469.13;5002637;28;20081;-73
2023/03/11 05:32:47;;;;;;;3.90;0.80;;;;;;;9.06;51.99;98467.66;5003096;28;20125;-75
2023/03/11 05:35:13;;;;;;;4.20;0.88;;;;;;;8.94;51.63;98447.63;5012387;28;20036;-74
2023/03/11 05:37:38;;;;;;;8.55;1.42;;;;;;;9.03;50.77;98464.50;5027272;28;20033;-73
2023/03/11 05:40:06;;;;;;;9.90;1.15;;;;;;;9.06;49.88;98458.78;5029587;28;20057;-74
2023/03/11 05:42:33;;;;;;;12.02;1.27;;;;;;;9.16;48.24;98468.28;5029858;28;20026;-74
2023/03/11 05:44:58;;;;;;;10.13;1.40;;;;;;;8.93;47.87;98455.81;5029843;28;20108;-75
2023/03/11 05:47:23;;;;;;;13.50;0.70;;;;;;;9.20;44.99;98488.34;5028417;28;20409;-74
2023/03/11 05:49:49;;;;;;;6.20;0.70;;;;;;;9.22;42.85;98480.13;5028478;28;20041;-74
2023/03/11 05:52:15;;;;;;;11.27;1.05;;;;;;;9.02;43.74;98477.03;5029128;28;20028;-75
2023/03/11 05:54:40;;;;;;;7.47;1.30;;;;;;;9.15;42.00;98490.69;5022464;28;20061;-75
2023/03/11 05:57:06;;;;;;;8.73;1.27;;;;;;;9.09;40.48;98496.72;5025753;28;20030;-67
2023/03/11 05:59:31;;;;;;;12.65;1.23;;;;;;;9.01;40.21;98511.94;5016708;28;20080;-66
2023/03/11 06:01:57;;;;;;;11.73;1.05;;;;;;;8.90;40.91;98497.09;5025076;28;20095;-67
2023/03/11 06:04:23;;;;;;;18.75;1.45;;;;;;;8.76;41.37;98492.44;4991772;28;20086;-66
2023/03/11 06:06:48;;;;;;;9.95;1.20;;;;;;;8.69;41.66;98487.91;5023040;28;20474;-66
2023/03/11 06:09:14;;;;;;;14.18;1.67;;;;;;;8.53;43.26;98483.41;5023599;28;20398;-66
2023/03/11 06:11:40;;;;;;;6.15;1.30;;;;;;;8.75;43.12;98522.00;5005360;28;20423;-66
2023/03/11 06:14:06;;;;;;;10.32;1.27;;;;;;;8.82;43.38;98528.34;5013525;28;20068;-65
2023/03/11 06:16:31;;;;;;;14.55;1.42;;;;;;;8.45;43.90;98474.56;5018051;28;20033;-66
2023/03/11 06:18:59;;;;;;;11.30;1.20;;;;;;;8.61;43.84;98507.44;5008058;28;20079;-67
2023/03/11 06:21:25;;;;;;;14.63;1.50;;;;;;;8.54;44.20;98494.91;5018865;28;20053;-67
2023/03/11 06:23:51;;;;;;;11.20;1.20;;;;;;;8.70;44.38;98503.78;5004449;28;20120;-66
2023/03/11 06:26:19;;;;;;;10.00;1.23;;;;;;;8.66;44.26;98523.81;5013272;28;20132;-67
2023/03/11 06:28:46;;;;;;;8.40;0.95;;;;;;;8.42;44.29;98502.41;5010754;28;20030;-66
2023/03/11 06:31:21;;;;;;;14.00;1.52;;;;;;;8.47;44.68;98509.94;4991045;28;20116;-66
2023/03/11 06:33:47;;;;;;;8.48;1.00;;;;;;;8.41;44.58;98527.47;5009255;28;20449;-66
2023/03/11 06:36:15;;;;;;;10.50;1.27;;;;;;;8.28;45.13;98515.59;5018356;28;20028;-66
2023/03/11 06:38:41;;;;;;;16.08;2.17;;;;;;;8.29;45.84;98546.66;5020468;28;20051;-65
2023/03/11 06:41:07;;;;;;;10.40;2.30;;;;;;;8.36;44.94;98551.19;5022712;28;20018;-66
2023/03/11 06:43:34;;;;;;;7.15;1.30;;;;;;;8.32;45.40;98543.66;5003275;28;20048;-65
2023/03/11 06:46:00;;;;;;;21.65;2.65;;;;;;;8.46;44.63;98553.69;5026321;28;20857;-65
2023/03/11 06:48:26;;;;;;;11.20;1.30;;;;;;;8.51;44.83;98586.06;5012413;28;20032;-73
2023/03/11 06:50:59;;;;;;;6.72;1.67;;;;;;;8.40;45.25;98591.72;5031091;28;20037;-74
2023/03/11 06:53:26;;;;;;;12.67;1.73;;;;;;;8.28;45.96;98595.69;5031793;28;20048;-73
2023/03/11 06:56:02;;;;;;;4.75;1.00;;;;;;;8.46;44.82;98599.09;5032643;28;20459;-73
2023/03/11 06:58:28;;;;;;;5.00;1.02;;;;;;;8.34;45.55;98619.09;5027378;28;20110;-73
2023/03/11 07:00:53;;;;;;;13.77;1.08;;;;;;;8.31;46.35;98584.69;5025275;28;20030;-74
2023/03/11 07:03:19;;;;;;;9.32;1.08;;;;;;;8.50;44.41;98600.44;5024615;28;20048;-72
2023/03/11 07:05:44;;;;;;;12.40;1.48;;;;;;;8.48;44.19;98634.50;5014060;28;20506;-73
2023/03/11 07:08:10;;;;;;;2.42;0.85;;;;;;;8.30;44.75;98633.78;5027441;28;20450;-74
2023/03/11 07:10:36;;;;;;;3.70;1.00;;;;;;;8.20;46.05;98617.00;5030826;28;20112;-73
2023/03/11 07:13:01;;;;;;;1.13;0.93;;;;;;;8.31;45.29;98606.91;5032970;28;20049;-74
2023/03/11 07:15:27;;;;;;;3.78;1.30;;;;;;;8.36;45.76;98652.66;5032579;28;20037;-73
2023/03/11 07:17:52;;;;;;;3.70;1.40;;;;;;;8.37;45.00;98673.03;5029205;28;20021;-74
2023/03/11 07:20:17;;;;;;;5.80;1.50;;;;;;;8.24;45.24;98637.94;5012599;28;20029;-73
2023/03/11 07:22:43;;;;;;;3.40;1.25;;;;;;;8.09;44.67;98609.31;5032058;28;20033;-73
2023/03/11 07:25:09;;;;;;;5.75;1.35;;;;;;;8.27;44.52;98672.31;5032415;28;20430;-73
2023/03/11 07:27:34;;;;;;;2.30;1.00;;;;;;;8.26;44.28;98667.16;5022710;28;20041;-73
2023/03/11 07:30:01;;;;;;;11.18;2.47;;;;;;;8.24;44.55;98694.00;5021008;28;20042;-73
2023/03/11 07:32:26;;;;;;;6.10;1.17;;;;;;;8.04;44.86;98639.16;5010867;28;20116;-73
2023/03/11 07:34:52;;;;;;;5.97;1.10;;;;;;;8.21;44.27;98677.41;5029787;28;20195;-73
2023/03/11 07:37:17;;;;;;;5.70;1.00;;;;;;;8.21;44.95;98688.09;5026703;28;20041;-73
2023/03/11 07:39:43;;;;;;;10.82;1.10;;;;;;;8.10;45.69;98646.50;5031617;28;20021;-73
2023/03/11 07:42:08;;;;;;;5.90;0.98;;;;;;;8.17;44.60;98644.88;5026596;28;20029;-73
2023/03/11 07:44:34;;;;;;;3.00;1.00;;;;;;;8.30;43.11;98685.34;5031857;28;20029;-73
2023/03/11 07:47:04;;;;;;;5.65;1.05;;;;;;;8.16;43.71;98664.53;5011763;28;20026;-73
2023/03/11 07:49:30;;;;;;;2.65;1.10;;;;;;;8.12;44.46;98675.69;5017178;28;20033;-74
2023/03/11 07:51:55;;;;;;;3.85;1.77;;;;;;;8.45;43.22;98693.59;5028055;28;20036;-74
2023/03/11 07:54:21;;;;;;;3.58;1.38;;;;;;;8.48;43.03;98693.28;5024755;28;20109;-73
2023/03/11 07:56:46;;;;;;;12.55;1.90;;;;;;;8.80;42.11;98686.19;5012088;28;20025;-73
2023/03/11 07:59:12;;;;;;;3.10;1.02;;;;;;;8.67;42.21;98682.28;5023073;28;20175;-74
2023/03/11 08:01:40;;;;;;;4.10;1.10;;;;;;;8.49;42.45;98678.91;5028702;28;20017;-66
2023/03/11 08:04:08;;;;;;;6.35;2.05;;;;;;;8.54;42.14;98682.78;5023083;28;20372;-67
2023/03/11 08:06:35;;;;;;;10.18;2.95;;;;;;;8.54;42.36;98700.63;5027683;28;20110;-67
2023/03/11 08:09:03;;;;;;;7.82;1.95;;;;;;;9.03;42.40;98695.25;5025979;28;20423;-73
2023/03/11 08:11:30;;;;;;;7.03;1.90;;;;;;;10.09;39.51;98696.94;5030458;28;20780;-73
2023/03/11 08:13:56;;;;;;;10.13;1.95;;;;;;;10.20;38.86;98680.50;5028339;28;20122;-73
2023/03/11 08:16:22;;;;;;;7.82;1.23;;;;;;;9.85;39.65;98691.59;5026298;28;20022;-74
2023/03/11 08:18:49;;;;;;;6.28;1.25;;;;;;;9.65;39.52;98684.94;5023580;28;20029;-73
2023/03/11 08:21:21;;;;;;;10.10;1.60;;;;;;;10.41;38.30;98710.22;5017517;28;20026;-73
2023/03/11 08:23:47;;;;;;;9.00;1.70;;;;;;;11.22;37.60;98695.38;5030625;28;20097;-73
2023/03/11 08:26:16;;;;;;;9.73;1.67;;;;;;;11.72;36.74;98695.72;5030984;28;20109;-73
2023/03/11 08:28:41;;;;;;;8.02;1.20;;;;;;;11.63;36.11;98683.38;5028146;28;20468;-73
2023/03/11 08:31:18;;;;;;;5.90;1.20;;;;;;;12.11;35.48;98682.91;5030531;28;20025;-73
2023/03/11 08:33:46;;;;;;;11.77;1.77;;;;;;;12.96;33.94;98684.06;5025192;28;20052;-74
2023/03/11 08:36:11;;;;;;;6.57;1.30;;;;;;;13.78;32.10;98680.75;5002565;28;20093;-74
2023/03/11 08:38:37;;;;;;;14.50;1.98;;;;;;;12.64;33.09;98693.38;5014940;28;20117;-74
2023/03/11 08:41:04;;;;;;;14.05;2.80;;;;;;;11.72;34.15;98694.88;5022675;28;20175;-74
2023/03/11 08:43:29;;;;;;;17.92;1.52;;;;;;;10.87;35.51;98712.06;5022238;28;20032;-74
2023/03/11 08:45:55;;;;;;;10.75;1.25;;;;;;;10.12;37.30;98708.13;5014046;28;20128;-74
2023/03/11 08:48:20;;;;;;;4.93;1.38;;;;;;;9.90;37.82;98710.69;5018929;28;20025;-74
2023/03/11 08:50:46;;;;;;;7.07;1.20;;;;;;;9.77;38.24;98705.81;5015470;28;20026;-74
2023/03/11 08:53:11;;;;;;;5.22;1.38;;;;;;;9.27;39.19;98710.50;5017519;28;20044;-73
2023/03/11 08:55:37;;;;;;;6.78;1.08;;;;;;;9.15;39.25;98707.31;5014722;28;20033;-74
2023/03/11 08:58:02;;;;;;;7.18;1.38;;;;;;;10.03;38.21;98716.34;5021893;28;20036;-73
2023/03/11 09:00:28;;;;;;;10.45;1.33;;;;;;;10.82;37.04;98715.25;5015100;28;20041;-74
2023/03/11 09:02:53;;;;;;;9.25;1.38;;;;;;;11.02;36.30;98710.28;5021437;28;20053;-74
2023/03/11 09:05:19;;;;;;;7.38;1.25;;;;;;;11.78;34.51;98724.53;5017633;28;20038;-74
2023/03/11 09:07:44;;;;;;;4.60;1.13;;;;;;;12.25;34.41;98732.31;5026030;28;20121;-74
2023/03/11 09:10:14;;;;;;;7.45;1.30;;;;;;;13.06;33.21;98722.28;5020147;28;20030;-74
2023/03/11 09:12:40;;;;;;;3.08;1.00;;;;;;;13.51;32.79;98720.09;5022080;28;20108;-74
2023/03/11 09:15:07;;;;;;;7.32;1.13;;;;;;;13.81;31.94;98712.72;5016583;28;20573;-74
2023/03/11 09:17:32;;;;;;;7.57;1.00;;;;;;;13.99;31.52;98726.53;5018916;28;20502;-74
2023/03/11 09:19:58;;;;;;;1.95;0.95;;;;;;;13.00;33.02;98688.88;5012203;28;20022;-74
2023/03/11 09:22:23;;;;;;;3.67;1.08;;;;;;;12.32;34.04;98728.69;5019303;28;20044;-74
2023/03/11 09:24:49;;;;;;;5.05;1.40;;;;;;;12.06;33.88;98716.72;5013763;28;20037;-74
2023/03/11 09:27:14;;;;;;;5.10;1.80;;;;;;;11.50;34.75;98710.81;5016071;28;20120;-74
2023/03/11 09:29:40;;;;;;;9.60;1.20;;;;;;;11.24;35.11;98720.22;5017456;28;20084;-74
2023/03/11 09:32:06;;;;;;;4.32;1.13;;;;;;;11.61;35.25;98720.28;5015266;28;20030;-74
2023/03/11 09:34:32;;;;;;;3.08;0.95;;;;;;;11.68;35.75;98707.84;5025074;28;20052;-74
2023/03/11 09:36:57;;;;;;;1.48;1.00;;;;;;;12.45;34.85;98712.75;5027062;28;20072;-73
2023/03/11 09:39:23;;;;;;;4.45;1.10;;;;;;;12.80;33.17;98720.06;5027357;28;20098;-73
2023/03/11 09:41:54;;;;;;;7.10;1.40;;;;;;;12.52;32.96;98721.78;5023211;28;20026;-73
2023/03/11 09:44:31;;;;;;;16.25;2.00;;;;;;;11.87;34.42;98701.13;5025071;28;20086;-73
2023/03/11 09:47:28;;;;;;;6.25;1.33;;;;;;;10.87;35.50;98702.16;5023351;28;20502;-74
2023/03/11 09:50:15;;;;;;;11.52;2.47;;;;;;;10.45;36.66;98723.09;5025325;28;20411;-67
2023/03/11 09:53:08;;;;;;;3.92;1.10;;;;;;;10.16;37.03;98744.28;5017133;28;20064;-66
2023/03/11 09:55:38;;;;;;;2.03;1.17;;;;;;;9.68;37.53;98706.00;5014547;28;20030;-67
2023/03/11 09:58:15;;;;;;;7.93;0.93;;;;;;;9.96;37.52;98721.53;4999142;28;20399;-74
2023/03/11 10:00:41;;;;;;;1.98;0.93;;;;;;;10.37;37.44;98716.94;5023543;28;20494;-74
2023/03/11 10:03:17;;;;;;;4.32;0.75;;;;;;;12.06;35.14;98714.03;5027183;28;20026;-73
2023/03/11 10:05:45;;;;;;;7.18;1.98;;;;;;;13.27;33.89;98719.63;5023117;28;20112;-74
2023/03/11 10:08:49;;;;;;;7.43;1.85;;;;;;;13.68;31.62;98712.59;5029134;28;20040;-73
2023/03/11 10:11:43;;;;;;;9.07;2.88;;;;;;;13.38;32.18;98709.19;4992885;28;20625;-73
2023/03/11 10:14:25;;;;;;;19.60;2.67;;;;;;;13.21;31.23;98734.69;5025175;28;20029;-67
2023/03/11 10:17:18;;;;;;;4.78;1.00;;;;;;;12.90;31.83;98725.97;5023767;28;20683;-67
2023/03/11 10:19:53;;;;;;;5.32;1.35;;;;;;;13.19;32.20;98720.56;5028133;28;20110;-67
2023/03/11 10:22:25;;;;;;;6.75;1.33;;;;;;;13.87;31.26;98716.47;5028251;28;20327;-67
2023/03/11 10:25:04;;;;;;;12.88;1.58;;;;;;;14.14;29.92;98703.00;5022418;28;20542;-67
2023/03/11 10:27:43;;;;;;;9.95;1.80;;;;;;;14.52;30.23;98733.19;5016950;28;20053;-67
2023/03/11 10:30:30;;;;;;;32.38;2.53;;;;;;;15.58;28.96;98710.78;5022094;28;20025;-69
2023/03/11 10:33:06;;;;;;;22.17;1.60;;;;;;;15.44;29.20;98700.16;5009305;28;20058;-67
2023/03/11 10:35:39;;;;;;;17.02;1.98;;;;;;;16.60;27.64;98719.34;4999650;28;20395;-67
2023/03/11 10:38:18;;;;;;;10.95;1.20;;;;;;;16.17;27.74;98718.94;5026629;28;20025;-67
2023/03/11 10:40:46;;;;;;;17.17;1.23;;;;;;;16.41;27.76;98729.09;5026149;28;20052;-67
2023/03/11 10:43:30;;;;;;;16.58;1.83;;;;;;;15.42;28.18;98738.19;5009833;28;20522;-67
2023/03/11 10:45:56;;;;;;;;;;;;;;;14.46;29.54;98756.38;5021653;28;20632;-67
2023/03/11 10:48:23;;;;;;;12.82;1.90;;;;;;;14.14;30.53;98746.16;5023941;28;19913;-73
2023/03/11 10:50:50;;;;;;;10.77;1.90;;;;;;;13.55;31.50;98740.22;5019017;28;20083;-73
2023/03/11 10:53:17;;;;;;;11.35;1.45;;;;;;;13.38;30.96;98754.97;5016442;28;20076;-74
2023/03/11 10:55:55;;;;;;;17.77;1.75;;;;;;;12.55;32.17;98731.31;5006392;28;20040;-73
2023/03/11 10:58:29;;;;;;;12.02;1.42;;;;;;;12.50;32.76;98747.16;5027560;28;20037;-75
2023/03/11 11:01:13;;;;;;;21.25;1.98;;;;;;;12.34;32.98;98745.47;5018420;28;20041;-73
2023/03/11 11:03:45;;;;;;;12.88;1.50;;;;;;;11.85;34.02;98743.44;5023841;28;20491;-73
2023/03/11 11:06:22;;;;;;;18.27;1.98;;;;;;;11.59;33.52;98733.06;5024464;28;20351;-74
2023/03/11 11:08:47;;;;;;;14.30;1.42;;;;;;;11.33;34.31;98751.34;5025666;28;20044;-73
2023/03/11 11:11:22;;;;;;;8.15;1.30;;;;;;;11.22;35.02;98749.06;5026608;28;20033;-74
2023/03/11 11:14:06;;;;;;;10.63;1.88;;;;;;;11.44;34.33;98738.34;5025599;28;20041;-74
2023/03/11 11:16:33;;;;;;;23.60;2.80;;;;;;;11.09;34.75;98746.97;5024947;28;20017;-74
2023/03/11 11:19:07;;;;;;;46.17;3.55;;;;;;;11.38;34.50;98784.69;5022621;28;20037;-74
2023/03/11 11:21:46;;;;;;;23.67;1.80;;;;;;;11.17;33.89;98795.22;5023769;28;20056;-74
2023/03/11 11:24:23;;;;;;;21.25;1.77;;;;;;;10.95;34.48;98785.28;5026877;28;20202;-72
2023/03/11 11:27:05;;;;;;;16.17;1.65;;;;;;;10.70;34.65;98790.88;5007800;28;20106;-72
2023/03/11 11:29:31;;;;;;;9.80;1.20;;;;;;;10.30;35.45;98778.44;5018780;28;20045;-72
2023/03/11 11:32:18;;;;;;;13.63;1.73;;;;;;;10.42;36.23;98777.06;5026990;28;20037;-74
2023/03/11 11:34:58;;;;;;;22.70;3.90;;;;;;;10.49;35.95;98766.50;5011199;28;20053;-73
2023/03/11 11:37:30;;;;;;;18.42;2.70;;;;;;;10.43;36.16;98761.81;5010686;28;20072;-74
2023/03/11 11:40:09;;;;;;;16.02;1.75;;;;;;;10.44;36.33;98768.84;5009561;28;20038;-73